Aviation Digital Data Service (ADDS)

Output produced by METARs form (1331 UTC 19 July 2018)
found at http://www.aviationweather.gov/adds/metars/
 
KJST 191254Z AUTO 27003KT 10SM CLR 18/14 A3016 RMK AO2 SLP203 T01780139
KJST 191154Z AUTO 00000KT 10SM CLR 17/13 A3014 RMK AO2 SLP197 T01720128 10172 20133 51005
KJST 191054Z AUTO 00000KT 10SM FEW048 15/12 A3014 RMK AO2 SLP198 T01500117
KJST 190954Z AUTO 00000KT 10SM BKN048 13/12 A3014 RMK AO2 SLP197 T01330117
KJST 190854Z AUTO 25004KT 10SM SCT048 13/11 A3013 RMK AO2 SLP194 T01330111 53005
KJST 190754Z AUTO 00000KT 10SM FEW048 17/12 A3012 RMK AO2 SLP189 T01670117
KJST 190654Z AUTO 00000KT 10SM BKN049 16/12 A3012 RMK AO2 SLP188 T01560117
KJST 190554Z AUTO 27003KT 10SM BKN050 17/12 A3012 RMK AO2 SLP186 T01720117 10211 20161 53005
KJST 190454Z AUTO 26004KT 10SM FEW050 18/11 A3011 RMK AO2 SLP183 T01780111 402330133
KJST 190354Z AUTO 26004KT 10SM CLR 18/12 A3010 RMK AO2 SLP181 T01780117
KJST 190254Z AUTO 26004KT 10SM CLR 19/12 A3010 RMK AO2 SLP180 T01890117 53009
KJST 190154Z AUTO 26004KT 10SM CLR 19/12 A3009 RMK AO2 SLP177 T01940117
KJST 190054Z AUTO 27004KT 10SM CLR 19/12 A3007 RMK AO2 SLP173 T01940117
KJST 182354Z AUTO 29006KT 10SM CLR 21/12 A3007 RMK AO2 SLP172 T02110122 10233 20211 53001
KJST 182254Z AUTO 29006KT 10SM CLR 23/12 A3006 RMK AO2 SLP170 T02280117
KJST 182154Z AUTO 32006KT 10SM CLR 23/12 A3007 RMK AO2 SLP171 T02330117
KJST 182054Z AUTO 31007KT 10SM FEW050 SCT060 23/11 A3007 RMK AO2 SLP170 T02330111 58005
KJST 181954Z AUTO VRB04KT 10SM SCT060 22/11 A3008 RMK AO2 SLP176 T02220111
KJST 181854Z AUTO 33006KT 10SM SCT060 23/11 A3008 RMK AO2 SLP177 T02280111
KJST 181754Z AUTO 10SM FEW047 23/12 A3008 RMK AO2 SLP175 T02280122 10228 20161 58002
KJST 181654Z AUTO 34007KT 10SM SCT043 SCT050 22/12 A3009 RMK AO2 SLP177 T02220122
KJST 181554Z AUTO 32008KT 10SM BKN042 22/12 A3009 RMK AO2 SLP180 T02170122
KJST 181454Z AUTO 01009KT 10SM FEW028 21/12 A3009 RMK AO2 SLP177 T02060117 51005
KJST 181354Z AUTO VRB05KT 10SM CLR 19/12 A3009 RMK AO2 SLP178 T01890122
KJST 181254Z AUTO 01006KT 10SM CLR 17/12 A3008 RMK AO2 SLP176 T01720122
KJST 181154Z AUTO VRB03KT 10SM CLR 16/12 A3007 RMK AO2 SLP172 70053 T01610122 10161 20133 53012
KJST 181054Z AUTO 33004KT 10SM CLR 14/12 A3005 RMK AO2 SLP163 T01440117
KJST 180954Z AUTO 31004KT 10SM CLR 14/11 A3004 RMK AO2 SLP162 T01390111
KJST 180854Z AUTO 31006KT 10SM CLR 14/11 A3003 RMK AO2 SLP158 T01390111 52004
KJST 180754Z AUTO 28003KT 10SM CLR 14/11 A3003 RMK AO2 SLP158 T01390111
KJST 180654Z AUTO 32006KT 10SM CLR 15/11 A3002 RMK AO2 SLP156 T01500111
KJST 180554Z AUTO 32008KT 10SM CLR 16/12 A3002 RMK AO2 SLP154 T01560117 10222 20156 58002
KJST 180454Z AUTO 32008KT 10SM CLR 17/12 A3003 RMK AO2 SLP156 T01670117 402610167
KJST 180354Z AUTO 32006KT 10SM CLR 17/12 A3003 RMK AO2 SLP156 T01720122
KJST 180254Z AUTO 33007KT 10SM CLR 18/13 A3003 RMK AO2 SLP156 T01780128 51015
KJST 180154Z AUTO 33007KT 10SM CLR 19/14 A3002 RMK AO2 SLP154 T01890139